Atlantic - Newfoundland: Past 24 Hour Conditions

 

Cartwright Airport

12:00 AM AST 27 February 2015
Disclaimer

This table is a summary of hourly weather conditions for the past 24 hours.
Please note that these observations might not always be representative of weather conditions over their associated marine area.

Date / Time
(AST)
Wind(knots) Conditions Visibility(km) Pressure(kPa) Air tempC) Relative humidity(%) Dew pointC) Wind Chill
27 February 2015
0:00 SSW 6 Clear 24 100.7 -16 58 -22 -22
26 February 2015
23:00 W 7 Clear 24 100.7 -14 54 -21 -21
22:00 W 13 Clear 24 100.6 -14 56 -21 -24
21:00 W 9 Clear 24 100.6 -13 57 -20 -21
20:00 W 6 Clear 24 100.4 -13 63 -18 -19
19:00 W 10 Clear 24 100.3 -12 65 -17 -20
18:00 W 13 gust 20 Clear 24 100.2 -11 66 -16 -20
17:00 WNW 18 gust 26 Mostly Cloudy 19 100.1 -11 66 -16 -21
16:00 WNW 17 gust 25 Drifting Snow 16 99.9 -10 68 -15 -20
15:00 NW 20 gust 33 Drifting Snow 11 99.7 -10 76 -13 -20
14:00 NW 21 gust 28 Drifting Snow 11 99.6 -8 71 -13 -18
13:00 NW 20 gust 31 Light Snow 10 99.4 -9 74 -13 -19
12:00 NW 20 gust 28 Light Snow 2 99.3 -8 80 -11 -18
11:00 NNW 23 gust 31 Light Snow 2 99.2 -9 81 -11 -19
10:00 N 19 gust 25 Light Snow 2 99.1 -8 85 -10 -18
9:00 N 18 gust 25 Light Snow 2 99.1 -9 87 -10 -18
8:00 N 14 Light Snow 3 99.2 -8 88 -10 -17
7:00 NE 10 gust 15 Light Snow 3 99.3 -9 88 -10 -16
6:00 ENE 13 gust 18 Light Snow 3 99.4 -9 87 -11 -17
5:00 ENE 5 Light Snow 3 99.7 -10 87 -11 -14
4:00 ENE 9 Light Snow 4 100.0 -10 85 -12 -17
3:00 ENE 8 Light Snow 4 100.2 -10 86 -12 -17
2:00 ENE 5 Light Snow 6 100.3 -10 85 -12 -15
1:00 SE 7 Light Snow 16 100.6 -10 84 -12 -17
0:00 SSE 10 Light Snow 19 100.8 -10 76 -14 -18

Zoom-in to make a selection

Map of Atlantic - Newfoundland marine weather areas Southwestern Grand Banks - 44138 Banquereau - 44139 Tail of the Bank - 44140 Nickerson Bank - 44251 Northeast Burgeo Bank - 44255 Blanc-Sablon Airport Cap Whittle Chevery Natashquan Airport Heath Point Miscou Island Grand Étang Ingonish Beach North Mountain St.Paul Island J.A. Douglas McCurdy Sydney Airport Charlottetown Airport East Point North Cape Argentia Bonavista Burgeo Cape Race Corner Brook Daniel's Harbour Englee Ferolle Point La Scie Port aux Basques Rocky Harbour Sagona Island St. Anthony Airport St. John's Int'l Airport St. Lawrence Stephenville Airport Twillingate Winterland Wreckhouse Cartwright Airport Mary's Harbour Grates Cove Pool's Island Marticot Island Long Pond Îles de la Madeleine Airport
Legend:
buoy Buoy
land station Land Station

Atlantic - Newfoundland Area

Another Region

What we are doing

Date modified: